Time;durP1;ratioP1;P1;durP2;ratioP2;P2;SDS_P1;SDS_P2;PMS_P1;PMS_P2;Temp;Humidity;BMP_temperature;BMP_pressure;BME280_temperature;BME280_humidity;BME280_pressure;Samples;Min_cycle;Max_cycle;Signal;HPM_P1;HPM_P2
2021/04/14 00:00:51;;;;;;;1.50;1.33;;;22.80;28.70;;;;;;4973052;28;20608;-55
2021/04/14 00:03:17;;;;;;;3.03;1.30;;;22.80;28.50;;;;;;4972552;28;20282;-57
2021/04/14 00:05:43;;;;;;;2.07;1.07;;;22.80;28.50;;;;;;4973133;28;20207;-56
2021/04/14 00:08:09;;;;;;;1.37;1.00;;;22.80;28.40;;;;;;4971862;28;20748;-54
2021/04/14 00:10:35;;;;;;;1.37;1.27;;;22.80;28.30;;;;;;4971831;28;20215;-57
2021/04/14 00:13:03;;;;;;;1.30;1.20;;;22.80;28.10;;;;;;4973077;28;20215;-55
2021/04/14 00:15:29;;;;;;;3.10;1.53;;;22.80;28.20;;;;;;4972502;28;20616;-57
2021/04/14 00:17:55;;;;;;;1.50;1.40;;;22.80;28.30;;;;;;4973505;28;20219;-56
2021/04/14 00:20:21;;;;;;;1.40;1.30;;;22.80;28.20;;;;;;4971892;28;20224;-56
2021/04/14 00:22:47;;;;;;;1.87;1.30;;;22.80;28.10;;;;;;4972691;28;20253;-57
2021/04/14 00:25:12;;;;;;;1.33;1.13;;;22.80;28.10;;;;;;4972216;28;20215;-56
2021/04/14 00:27:38;;;;;;;2.23;1.40;;;22.80;28.10;;;;;;4972713;28;20225;-56
2021/04/14 00:30:04;;;;;;;1.50;1.40;;;22.80;28.10;;;;;;4971836;28;20233;-54
2021/04/14 00:32:30;;;;;;;1.50;1.40;;;22.70;28.10;;;;;;4972926;28;20653;-55
2021/04/14 00:34:56;;;;;;;1.77;1.37;;;22.70;28.70;;;;;;4971544;28;20212;-56
2021/04/14 00:37:22;;;;;;;1.40;1.30;;;22.80;28.00;;;;;;4972971;28;20212;-55
2021/04/14 00:39:48;;;;;;;1.80;1.30;;;22.80;28.00;;;;;;4971076;28;20610;-55
2021/04/14 00:42:14;;;;;;;1.13;1.03;;;22.80;28.20;;;;;;4971594;28;20214;-56
2021/04/14 00:44:40;;;;;;;1.83;1.40;;;22.70;28.00;;;;;;4972039;28;20224;-55
2021/04/14 00:47:06;;;;;;;1.77;1.20;;;22.80;28.10;;;;;;4970970;28;20251;-57
2021/04/14 00:49:32;;;;;;;1.30;1.20;;;22.70;28.10;;;;;;4970778;28;20594;-56
2021/04/14 00:51:58;;;;;;;1.87;1.27;;;22.80;28.00;;;;;;4971359;28;20206;-54
2021/04/14 00:54:24;;;;;;;1.87;1.13;;;22.80;28.00;;;;;;4972885;28;20255;-56
2021/04/14 00:56:50;;;;;;;1.83;1.10;;;22.70;28.00;;;;;;4972102;28;20203;-57
2021/04/14 00:59:16;;;;;;;1.43;1.33;;;22.70;27.90;;;;;;4971776;28;20239;-57
2021/04/14 01:01:42;;;;;;;1.20;1.10;;;22.70;28.00;;;;;;4971165;28;20204;-56
2021/04/14 01:04:08;;;;;;;1.40;1.30;;;22.70;28.00;;;;;;4972121;28;20230;-57
2021/04/14 01:06:34;;;;;;;1.40;1.10;;;22.70;28.00;;;;;;4971215;28;20204;-58
2021/04/14 01:09:00;;;;;;;1.50;1.10;;;22.70;28.00;;;;;;4971486;28;20232;-56
2021/04/14 01:11:26;;;;;;;1.90;1.23;;;22.70;28.00;;;;;;4971263;28;20582;-56
2021/04/14 01:13:52;;;;;;;1.10;1.00;;;22.70;28.00;;;;;;4972156;28;20216;-56
2021/04/14 01:16:18;;;;;;;1.43;1.30;;;22.70;28.00;;;;;;4971610;28;20671;-54
2021/04/14 01:18:44;;;;;;;1.03;1.03;;;22.70;28.00;;;;;;4972114;28;20220;-56
2021/04/14 01:21:10;;;;;;;1.30;1.20;;;22.70;28.00;;;;;;4970345;28;20212;-56
2021/04/14 01:23:36;;;;;;;1.33;1.23;;;22.70;28.00;;;;;;4972036;28;20614;-52
2021/04/14 01:26:02;;;;;;;1.23;1.10;;;22.70;28.00;;;;;;4970927;28;20211;-55
2021/04/14 01:28:28;;;;;;;1.30;1.20;;;22.70;28.00;;;;;;4971507;28;20234;-55
2021/04/14 01:30:54;;;;;;;1.73;1.30;;;22.70;28.00;;;;;;4970696;28;20222;-54
2021/04/14 01:33:20;;;;;;;1.23;1.13;;;22.70;28.00;;;;;;4972088;28;20204;-56
2021/04/14 01:35:46;;;;;;;1.20;1.10;;;22.70;28.00;;;;;;4971521;28;20693;-56
2021/04/14 01:38:12;;;;;;;1.10;1.10;;;22.70;28.00;;;;;;4972269;28;20234;-52
2021/04/14 01:40:38;;;;;;;1.13;1.10;;;22.70;28.00;;;;;;4971074;28;20214;-52
2021/04/14 01:43:04;;;;;;;1.43;1.20;;;22.70;28.00;;;;;;4971616;28;20250;-56
2021/04/14 01:45:30;;;;;;;1.20;1.10;;;22.70;28.00;;;;;;4971123;28;20216;-56
2021/04/14 01:47:56;;;;;;;1.70;1.43;;;22.70;28.00;;;;;;4972022;28;20206;-57
2021/04/14 01:50:22;;;;;;;1.30;1.20;;;22.70;28.00;;;;;;4970413;28;20204;-57
2021/04/14 01:52:48;;;;;;;1.37;1.27;;;22.70;27.90;;;;;;4973944;28;20210;-58
2021/04/14 01:55:14;;;;;;;2.27;1.23;;;22.70;28.00;;;;;;4999160;23;20261;-63
2021/04/14 01:57:43;;;;;;;2.23;1.23;;;22.70;28.30;;;;;;5014137;28;20564;-63
2021/04/14 02:00:09;;;;;;;1.23;1.13;;;22.70;28.20;;;;;;5017397;28;20206;-63
2021/04/14 02:02:35;;;;;;;1.20;1.10;;;22.70;28.20;;;;;;5032712;28;20235;-63
2021/04/14 02:05:01;;;;;;;1.20;1.20;;;22.70;28.20;;;;;;5033397;28;20201;-63
2021/04/14 02:07:27;;;;;;;1.97;1.20;;;22.70;28.10;;;;;;5031218;28;20217;-63
2021/04/14 02:09:53;;;;;;;1.20;1.00;;;22.70;28.10;;;;;;5032245;28;20234;-63
2021/04/14 02:12:19;;;;;;;1.37;1.10;;;22.70;28.10;;;;;;5033347;28;20213;-63
2021/04/14 02:14:45;;;;;;;1.40;1.30;;;22.70;28.10;;;;;;5033973;28;20226;-63
2021/04/14 02:17:11;;;;;;;1.30;1.20;;;22.70;28.10;;;;;;5032199;28;20263;-63
2021/04/14 02:19:37;;;;;;;1.30;1.10;;;22.70;28.10;;;;;;5034101;28;20225;-64
2021/04/14 02:22:03;;;;;;;1.67;1.20;;;22.70;28.10;;;;;;5030588;28;20202;-63
2021/04/14 02:24:29;;;;;;;1.17;1.00;;;22.70;28.10;;;;;;5034049;28;20234;-63
2021/04/14 02:26:55;;;;;;;1.27;1.17;;;22.70;28.10;;;;;;5032206;28;20568;-63
2021/04/14 02:29:21;;;;;;;1.30;1.20;;;22.70;28.20;;;;;;5033214;28;20221;-63
2021/04/14 02:31:47;;;;;;;1.40;1.20;;;22.70;28.10;;;;;;5032413;28;20228;-63
2021/04/14 02:34:13;;;;;;;1.23;1.13;;;22.70;28.20;;;;;;5033745;28;20205;-64
2021/04/14 02:36:39;;;;;;;1.97;1.23;;;22.70;28.10;;;;;;5026340;28;20297;-63
2021/04/14 02:39:05;;;;;;;1.30;1.10;;;22.70;28.20;;;;;;5033313;28;20516;-64
2021/04/14 02:41:30;;;;;;;1.20;1.10;;;22.70;28.10;;;;;;5032370;28;20206;-63
2021/04/14 02:43:56;;;;;;;1.10;1.00;;;22.70;28.10;;;;;;5033223;28;20245;-63
2021/04/14 02:46:22;;;;;;;1.20;1.10;;;22.70;28.20;;;;;;5032433;28;20202;-64
2021/04/14 02:48:48;;;;;;;1.20;1.10;;;22.70;28.20;;;;;;5032246;28;20221;-63
2021/04/14 02:51:14;;;;;;;1.20;1.10;;;22.70;28.10;;;;;;5031516;28;20217;-63
2021/04/14 02:53:40;;;;;;;1.10;1.00;;;22.70;28.10;;;;;;5032986;28;20212;-64
2021/04/14 02:56:07;;;;;;;1.00;1.00;;;22.70;28.10;;;;;;5032471;28;20225;-63
2021/04/14 02:58:33;;;;;;;1.13;1.03;;;22.70;28.10;;;;;;5032752;28;20223;-63
2021/04/14 03:00:59;;;;;;;1.67;1.20;;;22.70;28.10;;;;;;5030962;28;20214;-62
2021/04/14 03:03:27;;;;;;;1.23;1.13;;;22.70;28.10;;;;;;5032148;28;20240;-63
2021/04/14 03:05:53;;;;;;;1.23;1.13;;;22.70;28.10;;;;;;5031191;28;20209;-62
2021/04/14 03:08:19;;;;;;;1.10;1.10;;;22.70;28.20;;;;;;5032550;28;20237;-63
2021/04/14 03:10:45;;;;;;;1.30;1.20;;;22.70;28.10;;;;;;5030437;28;20582;-64
2021/04/14 03:13:11;;;;;;;1.17;1.00;;;22.70;28.10;;;;;;5032822;28;20216;-63
2021/04/14 03:15:38;;;;;;;1.10;1.00;;;22.70;28.10;;;;;;5031553;28;20204;-63
2021/04/14 03:18:04;;;;;;;2.33;1.10;;;22.70;28.10;;;;;;5028686;28;20241;-63
2021/04/14 03:20:29;;;;;;;1.30;1.20;;;22.70;28.20;;;;;;5030963;28;20275;-63
2021/04/14 03:22:56;;;;;;;1.30;1.07;;;22.70;28.10;;;;;;5033271;28;20221;-63
2021/04/14 03:25:22;;;;;;;1.23;1.13;;;22.70;28.10;;;;;;5032134;28;20552;-63
2021/04/14 03:27:48;;;;;;;1.40;1.10;;;22.70;28.10;;;;;;5026968;28;20222;-63
2021/04/14 03:30:14;;;;;;;1.30;1.20;;;22.70;28.20;;;;;;5031150;28;20203;-63
2021/04/14 03:32:40;;;;;;;1.60;1.23;;;22.70;28.10;;;;;;5032789;28;20208;-63
2021/04/14 03:35:06;;;;;;;1.60;1.03;;;22.70;28.10;;;;;;5032005;28;20201;-63
2021/04/14 03:37:32;;;;;;;2.10;1.10;;;22.70;28.20;;;;;;5031724;28;20204;-63
2021/04/14 03:39:58;;;;;;;4.00;1.33;;;22.70;28.20;;;;;;5031105;28;20639;-63
2021/04/14 03:42:24;;;;;;;0.90;0.90;;;22.70;28.10;;;;;;5031726;28;20231;-63
2021/04/14 03:44:52;;;;;;;1.87;1.13;;;22.70;28.20;;;;;;5031929;28;20206;-63
2021/04/14 03:47:18;;;;;;;1.20;1.10;;;22.70;28.10;;;;;;5031545;28;20213;-63
2021/04/14 03:49:44;;;;;;;1.13;1.00;;;22.70;28.10;;;;;;5031784;28;20214;-63
2021/04/14 03:52:10;;;;;;;1.30;1.20;;;22.70;28.10;;;;;;5030423;28;20238;-64
2021/04/14 03:54:36;;;;;;;1.30;1.17;;;22.70;28.10;;;;;;5032163;28;20255;-64
2021/04/14 03:57:02;;;;;;;1.27;1.10;;;22.70;28.10;;;;;;5029384;28;20197;-63
2021/04/14 03:59:28;;;;;;;1.03;0.93;;;22.70;28.20;;;;;;5026712;28;20225;-63
2021/04/14 04:01:54;;;;;;;1.80;1.13;;;22.70;28.20;;;;;;5025912;28;20205;-63
2021/04/14 04:04:20;;;;;;;1.20;1.10;;;22.70;28.20;;;;;;5030967;28;20228;-63
2021/04/14 04:06:46;;;;;;;1.63;1.00;;;22.70;28.20;;;;;;5031727;28;20198;-64
2021/04/14 04:09:12;;;;;;;2.80;1.20;;;22.70;28.20;;;;;;5030181;28;20221;-63
2021/04/14 04:11:38;;;;;;;1.30;1.07;;;22.70;28.20;;;;;;5030955;28;20215;-63
2021/04/14 04:14:04;;;;;;;1.20;1.10;;;22.70;28.30;;;;;;5030954;28;20213;-63
2021/04/14 04:16:30;;;;;;;2.30;1.20;;;22.70;28.20;;;;;;5032060;28;20247;-64
2021/04/14 04:18:56;;;;;;;1.73;1.23;;;22.70;28.30;;;;;;5030749;28;20727;-63
2021/04/14 04:21:22;;;;;;;1.20;1.10;;;22.70;28.20;;;;;;5030602;28;20225;-63
2021/04/14 04:23:47;;;;;;;1.37;1.27;;;22.70;28.30;;;;;;5031597;28;20248;-63
2021/04/14 04:26:13;;;;;;;1.20;1.10;;;22.70;28.20;;;;;;5030275;28;20206;-63
2021/04/14 04:28:39;;;;;;;1.30;1.20;;;22.70;28.30;;;;;;5031119;28;20228;-63
2021/04/14 04:31:05;;;;;;;2.20;1.20;;;22.70;28.30;;;;;;5029925;28;20202;-63
2021/04/14 04:33:31;;;;;;;1.67;1.27;;;22.70;28.20;;;;;;5024519;28;20203;-63
2021/04/14 04:35:58;;;;;;;1.20;1.10;;;22.70;28.30;;;;;;5020738;28;20225;-63
2021/04/14 04:38:24;;;;;;;1.40;1.30;;;22.70;28.30;;;;;;5031213;28;20308;-63
2021/04/14 04:40:50;;;;;;;1.20;1.10;;;22.70;28.30;;;;;;5029535;28;20205;-63
2021/04/14 04:43:16;;;;;;;2.60;1.10;;;22.70;28.20;;;;;;5029813;28;20248;-64
2021/04/14 04:45:42;;;;;;;2.27;1.40;;;22.70;28.30;;;;;;5029750;28;20228;-64
2021/04/14 04:48:08;;;;;;;1.10;1.00;;;22.70;28.20;;;;;;5031539;28;20233;-62
2021/04/14 04:50:34;;;;;;;1.00;1.00;;;22.70;28.20;;;;;;5028614;28;22354;-62
2021/04/14 04:53:00;;;;;;;0.90;0.90;;;22.70;28.30;;;;;;5031432;28;20206;-62
2021/04/14 04:55:26;;;;;;;1.13;1.07;;;22.70;28.20;;;;;;5030163;28;20224;-62
2021/04/14 04:57:52;;;;;;;1.83;0.90;;;22.70;28.40;;;;;;5030969;28;20322;-62
2021/04/14 05:00:18;;;;;;;1.37;1.27;;;22.70;28.70;;;;;;5029570;28;20254;-62
2021/04/14 05:02:44;;;;;;;0.87;0.80;;;22.70;28.50;;;;;;5029902;28;20248;-63
2021/04/14 05:05:10;;;;;;;2.67;1.10;;;22.70;28.60;;;;;;5028869;28;20229;-63
2021/04/14 05:07:36;;;;;;;1.77;1.00;;;22.70;28.70;;;;;;5029946;28;20584;-62
2021/04/14 05:10:02;;;;;;;1.30;1.20;;;22.70;28.60;;;;;;5029616;28;20213;-62
2021/04/14 05:12:28;;;;;;;1.43;1.20;;;22.70;28.60;;;;;;5029312;28;20213;-62
2021/04/14 05:14:54;;;;;;;1.40;1.10;;;22.70;28.50;;;;;;5029445;28;20204;-63
2021/04/14 05:17:20;;;;;;;1.23;1.10;;;22.70;28.50;;;;;;5030834;28;20219;-63
2021/04/14 05:19:46;;;;;;;1.97;1.00;;;22.70;28.40;;;;;;5028932;28;20211;-63
2021/04/14 05:22:12;;;;;;;1.60;1.10;;;22.70;28.40;;;;;;5030138;28;20229;-67
2021/04/14 05:24:38;;;;;;;1.43;1.10;;;22.70;28.50;;;;;;5029786;28;20237;-64
2021/04/14 05:27:04;;;;;;;1.97;1.30;;;22.70;28.70;;;;;;5029842;28;20631;-64
2021/04/14 05:29:30;;;;;;;1.73;1.00;;;22.70;28.70;;;;;;5029847;28;20210;-64
2021/04/14 05:31:56;;;;;;;2.13;1.20;;;22.70;28.70;;;;;;5028192;28;20280;-64
2021/04/14 05:34:22;;;;;;;1.83;1.10;;;22.70;28.70;;;;;;5030265;28;20210;-64
2021/04/14 05:36:48;;;;;;;1.63;1.10;;;22.70;28.60;;;;;;5029391;28;20206;-65
2021/04/14 05:39:14;;;;;;;2.83;1.20;;;22.70;28.70;;;;;;5028231;28;20205;-64
2021/04/14 05:41:39;;;;;;;3.17;1.30;;;22.70;28.60;;;;;;5030062;28;20209;-65
2021/04/14 05:44:05;;;;;;;1.73;1.00;;;22.70;28.60;;;;;;5029738;28;20233;-64
2021/04/14 05:46:31;;;;;;;1.03;1.00;;;22.70;28.60;;;;;;5030692;28;20218;-65
2021/04/14 05:48:57;;;;;;;1.17;0.90;;;22.70;28.70;;;;;;5029488;28;20245;-64
2021/04/14 05:51:23;;;;;;;1.53;1.20;;;22.70;28.60;;;;;;5030423;28;20697;-64
2021/04/14 05:53:49;;;;;;;1.40;1.10;;;22.70;28.50;;;;;;5029268;28;20209;-64
2021/04/14 05:56:15;;;;;;;1.50;1.10;;;22.70;28.60;;;;;;5030805;28;20209;-64
2021/04/14 05:58:41;;;;;;;2.53;1.30;;;22.70;28.60;;;;;;5029453;28;20673;-64
2021/04/14 06:01:07;;;;;;;1.00;1.00;;;22.70;28.60;;;;;;5016420;28;20214;-64
2021/04/14 06:03:33;;;;;;;1.40;1.30;;;22.70;28.60;;;;;;5022400;28;20233;-64
2021/04/14 06:05:59;;;;;;;2.47;1.23;;;22.70;28.60;;;;;;5028945;28;20210;-64
2021/04/14 06:08:25;;;;;;;2.77;1.10;;;22.70;28.60;;;;;;5029053;28;20630;-64
2021/04/14 06:10:51;;;;;;;1.20;1.10;;;22.70;28.50;;;;;;5029284;28;20209;-64
2021/04/14 06:13:17;;;;;;;1.23;1.13;;;22.70;28.60;;;;;;5028847;28;20206;-64
2021/04/14 06:15:43;;;;;;;3.47;1.10;;;22.70;28.50;;;;;;5030589;28;20213;-64
2021/04/14 06:18:09;;;;;;;2.00;1.03;;;22.70;28.60;;;;;;5029891;28;20233;-64
2021/04/14 06:20:35;;;;;;;1.97;1.10;;;22.70;28.50;;;;;;5029222;28;20649;-64
2021/04/14 06:23:02;;;;;;;1.47;1.20;;;22.70;28.50;;;;;;5028750;28;20230;-64
2021/04/14 06:25:30;;;;;;;2.17;1.00;;;22.70;28.50;;;;;;5029316;28;20206;-64
2021/04/14 06:28:00;;;;;;;1.73;1.03;;;22.70;28.50;;;;;;5028920;28;20319;-64
2021/04/14 06:30:26;;;;;;;1.60;1.00;;;22.70;28.50;;;;;;5028430;28;20226;-64
2021/04/14 06:32:52;;;;;;;2.23;1.10;;;22.70;28.50;;;;;;5028885;28;20226;-65
2021/04/14 06:35:18;;;;;;;2.65;1.00;;;22.70;28.50;;;;;;5030180;28;20293;-65
2021/04/14 06:37:44;;;;;;;1.27;1.10;;;22.70;28.50;;;;;;5029302;28;20226;-65
2021/04/14 06:40:37;;;;;;;2.10;1.10;;;22.70;28.60;;;;;;5033697;28;20206;-65
2021/04/14 06:43:06;;;;;;;1.33;1.13;;;22.70;28.50;;;;;;5016091;28;20266;-65
2021/04/14 06:45:32;;;;;;;1.10;1.00;;;22.70;28.60;;;;;;5034034;28;20202;-65
2021/04/14 06:47:58;;;;;;;2.07;1.07;;;22.70;28.50;;;;;;5032579;28;20697;-65
2021/04/14 06:50:24;;;;;;;1.10;1.00;;;22.70;28.50;;;;;;5031934;28;20202;-64
2021/04/14 06:52:50;;;;;;;1.53;1.10;;;22.70;28.50;;;;;;5033898;28;20611;-66
2021/04/14 06:55:16;;;;;;;1.30;1.10;;;22.70;28.50;;;;;;5032058;28;20210;-66
2021/04/14 06:57:42;;;;;;;1.30;1.20;;;22.70;28.50;;;;;;5032569;28;20225;-65
2021/04/14 07:00:08;;;;;;;2.53;1.10;;;22.70;28.50;;;;;;5032641;28;20255;-65
2021/04/14 07:02:34;;;;;;;1.73;1.30;;;22.80;28.60;;;;;;5032163;28;20659;-64
2021/04/14 07:05:00;;;;;;;1.03;1.00;;;22.70;28.50;;;;;;5032705;28;20206;-64
2021/04/14 07:07:26;;;;;;;1.27;1.10;;;22.80;28.50;;;;;;5032264;28;20229;-65
2021/04/14 07:09:52;;;;;;;1.30;1.20;;;22.80;28.50;;;;;;5031117;28;20590;-65
2021/04/14 07:12:18;;;;;;;1.17;0.90;;;22.80;28.60;;;;;;5032793;28;20199;-64
2021/04/14 07:14:44;;;;;;;2.20;1.10;;;22.80;28.50;;;;;;5031932;28;20263;-65
2021/04/14 07:17:10;;;;;;;1.87;1.10;;;22.80;28.50;;;;;;5032609;28;20226;-64
2021/04/14 07:19:36;;;;;;;1.30;1.20;;;22.80;28.50;;;;;;5032198;28;20198;-65
2021/04/14 07:22:02;;;;;;;2.67;1.20;;;22.80;28.40;;;;;;5032906;28;20650;-64
2021/04/14 07:24:28;;;;;;;1.30;1.20;;;22.80;28.50;;;;;;5030551;28;20232;-65
2021/04/14 07:26:54;;;;;;;1.33;1.10;;;22.80;28.40;;;;;;5032792;28;20272;-65
2021/04/14 07:29:20;;;;;;;1.67;1.00;;;22.80;28.40;;;;;;5031993;28;20205;-65
2021/04/14 07:31:46;;;;;;;2.40;1.27;;;22.80;28.30;;;;;;5027977;28;20634;-62
2021/04/14 07:34:12;;;;;;;2.87;1.10;;;22.80;28.50;;;;;;5031504;28;20259;-58
2021/04/14 07:36:38;;;;;;;3.37;1.33;;;22.80;28.70;;;;;;5027666;28;20238;-63
2021/04/14 07:39:04;;;;;;;3.83;1.10;;;22.90;29.00;;;;;;5030174;28;20639;-60
2021/04/14 07:41:30;;;;;;;3.93;1.17;;;22.80;29.20;;;;;;5030860;28;20590;-62
2021/04/14 07:43:57;;;;;;;2.80;1.20;;;22.80;29.20;;;;;;5031469;28;20245;-53
2021/04/14 07:46:24;;;;;;;4.23;1.30;;;22.80;29.40;;;;;;5030851;28;20581;-56
2021/04/14 07:48:50;;;;;;;7.13;1.50;;;22.80;29.60;;;;;;5029400;28;20252;-61
2021/04/14 07:51:17;;;;;;;4.47;1.57;;;22.90;29.80;;;;;;5028781;28;20310;-59
2021/04/14 07:53:43;;;;;;;6.63;1.67;;;22.90;30.90;;;;;;5028767;28;20655;-59
2021/04/14 07:56:09;;;;;;;5.63;1.80;;;22.90;31.50;;;;;;5036281;22;20231;-59
2021/04/14 07:58:35;;;;;;;6.10;1.77;;;22.80;31.70;;;;;;5010228;28;20199;-59
2021/04/14 08:01:01;;;;;;;4.00;1.43;;;22.80;31.90;;;;;;5011652;28;20204;-61
2021/04/14 08:03:27;;;;;;;3.70;1.55;;;22.80;31.80;;;;;;5005973;28;20238;-64
2021/04/14 08:05:53;;;;;;;3.23;1.70;;;22.80;32.10;;;;;;5012098;28;20230;-63
2021/04/14 08:08:19;;;;;;;5.50;1.93;;;22.80;32.10;;;;;;5008677;28;20208;-62
2021/04/14 08:10:45;;;;;;;5.43;2.90;;;22.90;31.50;;;;;;5011824;28;20325;-61
2021/04/14 08:13:17;;;;;;;8.80;3.93;;;22.20;26.90;;;;;;5007340;28;20211;-63
2021/04/14 08:15:44;;;;;;;5.40;2.70;;;21.40;25.50;;;;;;5003136;28;20355;-63
2021/04/14 08:18:10;;;;;;;3.37;2.30;;;21.10;24.80;;;;;;5010764;28;20220;-62
2021/04/14 08:20:36;;;;;;;5.13;2.23;;;21.60;24.30;;;;;;5010339;28;20668;-62
2021/04/14 08:23:02;;;;;;;4.60;2.07;;;21.90;25.00;;;;;;5010198;28;20222;-62
2021/04/14 08:25:28;;;;;;;2.53;1.53;;;22.20;26.00;;;;;;5007324;28;20203;-63
2021/04/14 08:27:57;;;;;;;4.53;1.93;;;22.40;26.60;;;;;;5009339;28;20723;-63
2021/04/14 08:30:23;;;;;;;4.63;2.03;;;22.70;27.80;;;;;;5010817;28;20216;-63
2021/04/14 08:32:48;;;;;;;3.23;1.43;;;22.80;27.90;;;;;;5009409;28;20203;-63
2021/04/14 08:35:14;;;;;;;3.03;1.70;;;23.00;28.00;;;;;;5011772;28;20202;-63
2021/04/14 08:37:40;;;;;;;3.97;1.67;;;23.10;28.60;;;;;;5007753;28;20230;-63
2021/04/14 08:40:06;;;;;;;3.40;1.70;;;23.20;29.20;;;;;;5005905;28;20233;-62
2021/04/14 08:42:32;;;;;;;3.77;1.83;;;23.30;29.50;;;;;;5006142;28;20238;-63
2021/04/14 08:44:58;;;;;;;2.97;1.50;;;23.30;29.70;;;;;;5009047;28;20683;-61
2021/04/14 08:47:25;;;;;;;3.70;2.10;;;23.40;30.10;;;;;;4999446;28;20219;-60
2021/04/14 08:49:51;;;;;;;4.07;1.90;;;23.40;30.80;;;;;;5009906;28;20210;-61
2021/04/14 08:52:17;;;;;;;2.37;1.70;;;23.30;31.40;;;;;;5011177;28;20214;-62
2021/04/14 08:54:43;;;;;;;3.93;1.60;;;23.40;31.30;;;;;;5010565;28;20214;-61
2021/04/14 08:57:09;;;;;;;2.57;1.50;;;23.30;31.00;;;;;;5009779;28;20230;-64
2021/04/14 08:59:35;;;;;;;2.05;1.73;;;23.30;31.20;;;;;;5012310;28;20197;-59
2021/04/14 09:02:01;;;;;;;2.97;1.87;;;23.20;30.60;;;;;;5008308;28;20221;-59
2021/04/14 09:04:26;;;;;;;2.00;1.58;;;23.20;30.70;;;;;;5005211;28;20231;-55
2021/04/14 09:06:52;;;;;;;2.15;1.65;;;23.20;31.00;;;;;;5006696;28;20281;-64
2021/04/14 09:09:18;;;;;;;2.47;1.50;;;23.20;30.70;;;;;;5005232;28;20215;-63
2021/04/14 09:11:45;;;;;;;3.17;1.67;;;23.10;30.20;;;;;;5005454;28;20217;-66
2021/04/14 09:14:14;;;;;;;1.83;1.67;;;23.10;31.80;;;;;;5012824;28;20777;-63
2021/04/14 09:16:40;;;;;;;2.72;1.52;;;23.10;30.90;;;;;;5018065;28;20220;-65
2021/04/14 09:19:06;;;;;;;2.40;1.60;;;23.10;31.40;;;;;;5002354;28;20207;-63
2021/04/14 09:21:32;;;;;;;1.83;1.67;;;23.10;31.00;;;;;;5014224;28;20206;-61
2021/04/14 09:23:58;;;;;;;2.42;1.40;;;23.00;31.30;;;;;;5009459;28;20722;-60
2021/04/14 09:26:24;;;;;;;3.10;1.50;;;23.00;30.30;;;;;;5019059;28;20231;-60
2021/04/14 09:28:50;;;;;;;2.10;1.67;;;23.00;31.10;;;;;;5021043;28;20199;-63
2021/04/14 09:31:16;;;;;;;2.50;1.60;;;22.80;28.50;;;;;;5017475;28;20906;-57
2021/04/14 09:33:42;;;;;;;2.30;1.53;;;22.50;29.40;;;;;;5006007;28;20207;-59
2021/04/14 09:36:08;;;;;;;2.60;1.57;;;22.70;29.60;;;;;;5030230;28;20234;-59
2021/04/14 09:38:36;;;;;;;1.67;1.20;;;22.80;29.60;;;;;;5018365;28;20204;-59
2021/04/14 09:41:02;;;;;;;2.27;1.40;;;22.80;29.90;;;;;;5014356;28;20227;-61
2021/04/14 09:43:27;;;;;;;2.07;1.53;;;22.90;30.20;;;;;;5000659;28;20698;-60
2021/04/14 09:45:53;;;;;;;2.53;1.40;;;22.90;30.20;;;;;;5004484;28;20222;-60
2021/04/14 09:48:19;;;;;;;3.87;1.40;;;22.90;30.20;;;;;;5008664;28;20205;-60
2021/04/14 09:50:45;;;;;;;3.42;1.52;;;22.90;30.20;;;;;;5005150;28;20532;-59
2021/04/14 09:53:11;;;;;;;2.53;1.50;;;22.90;30.30;;;;;;4999757;28;20214;-60
2021/04/14 09:55:39;;;;;;;1.33;1.23;;;22.90;30.30;;;;;;4991153;28;20231;-60
2021/04/14 09:58:05;;;;;;;2.50;1.60;;;23.00;30.60;;;;;;4991401;28;20233;-60
2021/04/14 10:00:31;;;;;;;1.40;1.30;;;23.00;30.60;;;;;;4991053;28;20723;-60
2021/04/14 10:02:57;;;;;;;2.25;1.58;;;23.00;30.70;;;;;;5002787;28;20210;-59
2021/04/14 10:05:23;;;;;;;2.00;1.40;;;23.00;30.80;;;;;;5010722;28;20246;-59
2021/04/14 10:07:49;;;;;;;1.83;1.30;;;23.00;30.60;;;;;;5004069;28;20575;-60
2021/04/14 10:10:15;;;;;;;1.83;1.47;;;23.00;30.40;;;;;;4990725;28;20211;-60
2021/04/14 10:12:41;;;;;;;2.07;1.50;;;23.10;31.00;;;;;;4997963;28;20203;-60
2021/04/14 10:15:07;;;;;;;2.50;1.45;;;23.10;31.40;;;;;;5015095;28;20213;-61
2021/04/14 10:17:33;;;;;;;2.65;1.35;;;23.00;31.40;;;;;;5014757;28;20655;-61
2021/04/14 10:20:01;;;;;;;2.88;1.35;;;23.10;31.50;;;;;;5008013;28;20204;-60
2021/04/14 10:22:27;;;;;;;2.95;1.40;;;23.10;30.30;;;;;;5013303;28;20210;-60
2021/04/14 10:24:53;;;;;;;1.97;1.30;;;23.00;29.90;;;;;;5005918;28;20707;-60
2021/04/14 10:27:19;;;;;;;6.53;2.00;;;23.00;30.10;;;;;;5001414;28;20207;-59
2021/04/14 10:29:45;;;;;;;2.15;1.40;;;23.00;29.90;;;;;;5009471;28;20282;-64
2021/04/14 10:32:11;;;;;;;3.47;1.40;;;23.10;30.10;;;;;;5015480;28;20202;-62
2021/04/14 10:34:37;;;;;;;2.65;1.10;;;23.10;30.00;;;;;;5014980;28;20218;-65
2021/04/14 10:37:03;;;;;;;1.95;1.20;;;23.10;30.00;;;;;;5033019;28;20705;-60
2021/04/14 10:39:29;;;;;;;1.80;1.30;;;23.10;29.80;;;;;;5024093;28;20202;-62
2021/04/14 10:41:56;;;;;;;2.30;1.70;;;23.10;30.00;;;;;;5009298;28;20313;-65
2021/04/14 10:44:22;;;;;;;2.07;1.30;;;23.10;29.70;;;;;;5008403;28;20285;-61
2021/04/14 10:46:48;;;;;;;2.40;1.27;;;23.10;30.10;;;;;;5003765;28;20215;-60
2021/04/14 10:49:14;;;;;;;2.05;1.30;;;23.10;29.90;;;;;;5011439;28;20213;-60
2021/04/14 10:51:40;;;;;;;2.10;1.40;;;23.10;30.10;;;;;;5011378;28;20257;-64
2021/04/14 10:54:06;;;;;;;1.58;1.23;;;23.10;30.10;;;;;;5011015;28;20302;-64
2021/04/14 10:56:32;;;;;;;1.80;1.20;;;23.10;30.10;;;;;;5011049;28;20250;-64
2021/04/14 10:58:58;;;;;;;2.25;1.17;;;23.00;30.80;;;;;;5007084;28;20734;-65
2021/04/14 11:01:24;;;;;;;3.00;1.30;;;23.00;30.50;;;;;;5011271;28;20215;-64
2021/04/14 11:03:50;;;;;;;2.42;1.35;;;23.00;30.20;;;;;;5008826;28;20285;-63
2021/04/14 11:06:16;;;;;;;1.63;1.50;;;23.00;30.70;;;;;;5012487;28;20226;-64
2021/04/14 11:08:42;;;;;;;1.60;1.10;;;23.00;30.60;;;;;;5007617;28;20211;-64
2021/04/14 11:11:08;;;;;;;2.97;1.30;;;23.00;30.70;;;;;;5009104;28;20604;-65
2021/04/14 11:13:34;;;;;;;2.33;1.23;;;23.00;30.70;;;;;;5010226;28;20215;-65
2021/04/14 11:16:00;;;;;;;3.92;1.35;;;23.00;30.80;;;;;;5009456;28;20222;-65
2021/04/14 11:18:26;;;;;;;1.80;1.20;;;23.00;30.50;;;;;;5012112;28;20609;-65
2021/04/14 11:20:54;;;;;;;1.33;1.13;;;23.00;30.50;;;;;;5000600;28;20210;-65
2021/04/14 11:23:20;;;;;;;2.03;1.23;;;23.10;30.80;;;;;;4997238;28;20234;-66
2021/04/14 11:25:46;;;;;;;2.90;1.30;;;23.10;30.80;;;;;;5011870;28;20227;-65
2021/04/14 11:28:12;;;;;;;1.97;1.30;;;23.10;30.30;;;;;;5012974;28;20227;-65
2021/04/14 11:30:38;;;;;;;1.50;1.40;;;23.10;29.90;;;;;;5004888;28;20207;-62
2021/04/14 11:33:04;;;;;;;3.28;1.60;;;23.10;30.80;;;;;;5000567;28;20569;-65
2021/04/14 11:35:30;;;;;;;1.85;1.15;;;23.20;30.70;;;;;;5001754;28;20216;-64
2021/04/14 11:37:56;;;;;;;3.67;1.60;;;23.10;30.50;;;;;;4997785;28;20198;-62
2021/04/14 11:40:22;;;;;;;4.32;1.50;;;23.20;30.80;;;;;;5014915;28;20362;-65
2021/04/14 11:42:48;;;;;;;2.33;1.60;;;23.20;30.70;;;;;;5017101;28;20198;-63
2021/04/14 11:45:14;;;;;;;5.15;2.35;;;23.20;30.70;;;;;;5020612;28;20227;-62
2021/04/14 11:47:40;;;;;;;7.70;2.65;;;23.30;30.90;;;;;;5014795;28;20282;-62
2021/04/14 11:50:06;;;;;;;5.35;2.28;;;23.30;31.30;;;;;;5002930;28;20203;-64
2021/04/14 11:52:32;;;;;;;6.70;2.33;;;23.30;31.50;;;;;;5019878;28;20274;-59
2021/04/14 11:54:58;;;;;;;7.60;3.35;;;23.30;32.10;;;;;;5435025;22;20239;-56
2021/04/14 11:57:24;;;;;;;7.00;2.95;;;23.30;33.20;;;;;;4988780;28;20212;-56
2021/04/14 11:59:50;;;;;;;8.73;3.55;;;23.30;33.00;;;;;;4990532;28;20270;-55
2021/04/14 12:02:16;;;;;;;5.65;2.50;;;23.30;33.40;;;;;;4991853;28;20644;-55
2021/04/14 12:04:43;;;;;;;9.93;3.58;;;23.30;34.10;;;;;;4983284;28;20239;-55
2021/04/14 12:07:09;;;;;;;9.57;2.78;;;23.30;33.80;;;;;;4995296;23;20259;-64
2021/04/14 12:09:35;;;;;;;9.77;3.40;;;23.30;34.20;;;;;;5001728;28;20258;-64
2021/04/14 12:12:01;;;;;;;8.65;3.08;;;23.20;34.50;;;;;;5004569;28;20204;-64
2021/04/14 12:14:27;;;;;;;9.30;3.13;;;23.30;34.40;;;;;;5021620;28;20237;-64
2021/04/14 12:16:53;;;;;;;6.00;2.95;;;23.20;33.90;;;;;;5031767;28;20198;-64
2021/04/14 12:19:19;;;;;;;6.68;3.10;;;23.20;34.40;;;;;;5031243;28;20209;-64
2021/04/14 12:21:45;;;;;;;7.90;2.83;;;23.20;34.40;;;;;;5029836;28;20535;-64
2021/04/14 12:24:11;;;;;;;9.05;3.40;;;23.20;34.50;;;;;;5030584;28;20234;-64
2021/04/14 12:26:37;;;;;;;5.83;2.50;;;23.20;34.50;;;;;;5031080;28;20207;-64
2021/04/14 12:29:03;;;;;;;7.18;2.53;;;23.20;34.50;;;;;;5030986;28;20191;-64
2021/04/14 12:31:31;;;;;;;5.32;2.70;;;23.20;34.60;;;;;;5030950;28;20190;-64
2021/04/14 12:33:57;;;;;;;6.75;2.88;;;23.20;34.50;;;;;;5017836;28;20309;-64
2021/04/14 12:36:23;;;;;;;5.47;2.33;;;23.10;34.30;;;;;;5030223;28;20205;-63
2021/04/14 12:38:49;;;;;;;7.95;3.67;;;23.20;34.60;;;;;;5027138;28;20207;-64
2021/04/14 12:41:15;;;;;;;8.48;2.83;;;23.20;34.50;;;;;;5031108;28;20658;-65